Time;durP1;ratioP1;P1;durP2;ratioP2;P2;SDS_P1;SDS_P2;PMS_P1;PMS_P2;Temp;Humidity;BMP_temperature;BMP_pressure;BME280_temperature;BME280_humidity;BME280_pressure;Samples;Min_cycle;Max_cycle;Signal;HPM_P1;HPM_P2
2021/03/30 00:01:07;;;;;;;4.53;3.60;;;9.20;99.90;;;;;;5012514;28;20178;-77
2021/03/30 00:03:33;;;;;;;6.50;3.67;;;9.30;99.90;;;;;;5013775;28;20195;-76
2021/03/30 00:05:59;;;;;;;6.37;3.33;;;9.30;99.90;;;;;;5012246;28;20194;-76
2021/03/30 00:08:25;;;;;;;4.87;3.50;;;9.30;99.90;;;;;;5012204;28;20195;-76
2021/03/30 00:10:51;;;;;;;6.73;3.43;;;9.30;99.90;;;;;;5013500;28;20569;-76
2021/03/30 00:13:17;;;;;;;4.43;3.80;;;9.20;99.90;;;;;;5013524;28;20269;-76
2021/03/30 00:15:42;;;;;;;4.50;3.60;;;9.20;99.90;;;;;;5012020;28;20198;-76
2021/03/30 00:18:28;;;;;;;5.63;3.70;;;9.30;99.90;;;;;;5013240;28;20206;-76
2021/03/30 00:21:13;;;;;;;6.33;3.50;;;9.20;99.90;;;;;;5012934;28;20224;-76
2021/03/30 00:23:59;;;;;;;4.60;3.27;;;9.10;99.90;;;;;;5013210;28;20667;-76
2021/03/30 00:26:25;;;;;;;3.57;2.70;;;9.10;99.90;;;;;;5013805;28;20208;-76
2021/03/30 00:28:50;;;;;;;4.47;2.83;;;9.00;99.90;;;;;;5013332;28;20186;-76
2021/03/30 00:31:16;;;;;;;4.47;3.00;;;8.90;99.90;;;;;;5013388;28;20185;-76
2021/03/30 00:34:01;;;;;;;4.97;3.57;;;8.80;99.90;;;;;;5012920;28;20218;-76
2021/03/30 00:36:27;;;;;;;5.93;3.60;;;8.80;99.90;;;;;;5032063;22;20189;-82
2021/03/30 00:39:13;;;;;;;5.07;3.50;;;8.70;99.90;;;;;;5020027;28;20198;-81
2021/03/30 00:41:40;;;;;;;4.03;3.00;;;8.70;99.90;;;;;;5016397;28;20212;-81
2021/03/30 00:44:25;;;;;;;5.13;3.53;;;8.70;99.90;;;;;;5022542;28;20567;-81
2021/03/30 00:47:17;;;;;;;5.23;3.30;;;8.70;99.90;;;;;;5009946;28;20229;-81
2021/03/30 00:50:03;;;;;;;3.50;3.17;;;8.70;99.90;;;;;;4997044;28;20184;-81
2021/03/30 00:52:50;;;;;;;4.27;3.60;;;8.70;99.90;;;;;;4997016;28;20195;-81
2021/03/30 00:55:16;;;;;;;3.63;3.27;;;8.60;99.90;;;;;;4995420;28;20187;-81
2021/03/30 00:57:42;;;;;;;3.97;3.17;;;8.60;99.90;;;;;;4996728;28;20241;-81
2021/03/30 01:00:13;;;;;;;4.83;3.37;;;8.60;99.90;;;;;;4993180;28;20206;-81
2021/03/30 01:02:39;;;;;;;5.90;3.87;;;8.60;99.90;;;;;;4994787;28;20229;-81
2021/03/30 01:05:21;;;;;;;4.30;3.47;;;8.60;99.90;;;;;;4995560;28;20721;-81
2021/03/30 01:08:18;;;;;;;3.83;3.47;;;8.60;99.90;;;;;;5010637;28;20229;-81
2021/03/30 01:10:47;;;;;;;3.73;3.07;;;8.60;99.90;;;;;;4995628;28;20210;-81
2021/03/30 01:13:21;;;;;;;4.20;3.37;;;8.60;99.90;;;;;;4995657;28;20264;-81
2021/03/30 01:16:03;;;;;;;4.90;3.70;;;8.60;99.90;;;;;;4993933;28;20175;-80
2021/03/30 01:19:11;;;;;;;6.57;3.70;;;8.50;99.90;;;;;;4996396;28;20207;-81
2021/03/30 01:21:43;;;;;;;3.90;3.43;;;8.40;99.90;;;;;;4978217;28;20639;-81
2021/03/30 01:24:50;;;;;;;6.47;3.70;;;8.40;99.90;;;;;;4997027;28;20182;-81
2021/03/30 01:27:33;;;;;;;6.53;3.40;;;8.30;99.90;;;;;;4955952;28;20242;-80
2021/03/30 01:30:01;;;;;;;4.30;3.43;;;8.30;99.90;;;;;;4992785;28;20196;-81
2021/03/30 01:32:40;;;;;;;3.37;3.07;;;8.20;99.90;;;;;;4997165;28;20179;-81
2021/03/30 01:35:18;;;;;;;5.20;3.50;;;8.10;99.90;;;;;;5000422;28;20190;-81
2021/03/30 01:37:47;;;;;;;4.37;3.23;;;8.00;99.90;;;;;;4999758;28;20215;-81
2021/03/30 01:40:15;;;;;;;4.97;2.93;;;7.90;99.90;;;;;;4998482;28;20263;-80
2021/03/30 01:42:41;;;;;;;6.07;3.43;;;7.80;99.90;;;;;;4999775;28;20554;-81
2021/03/30 01:45:10;;;;;;;3.93;3.53;;;7.80;99.90;;;;;;4999695;28;20642;-81
2021/03/30 01:47:38;;;;;;;5.37;3.40;;;7.80;99.90;;;;;;4999509;28;20346;-81
2021/03/30 01:50:06;;;;;;;4.83;4.10;;;7.70;99.90;;;;;;4999810;28;20181;-80
2021/03/30 01:52:33;;;;;;;10.97;3.47;;;7.70;99.90;;;;;;4999830;28;20195;-81
2021/03/30 01:55:00;;;;;;;3.77;3.03;;;7.70;99.90;;;;;;4997953;28;20196;-81
2021/03/30 01:57:30;;;;;;;5.57;3.17;;;7.70;99.90;;;;;;4999383;28;20380;-81
2021/03/30 01:59:58;;;;;;;5.13;2.97;;;7.70;99.90;;;;;;4999388;28;20211;-80
2021/03/30 02:02:25;;;;;;;5.50;3.30;;;7.70;99.90;;;;;;4999527;28;20203;-81
2021/03/30 02:04:52;;;;;;;4.80;3.17;;;7.70;99.90;;;;;;4998222;28;20184;-81
2021/03/30 02:07:17;;;;;;;6.37;3.30;;;7.80;99.90;;;;;;4997843;28;20213;-80
2021/03/30 02:09:49;;;;;;;3.10;2.80;;;7.80;99.90;;;;;;4999290;28;20649;-80
2021/03/30 02:12:18;;;;;;;8.23;3.00;;;7.70;99.90;;;;;;4997436;28;20182;-81
2021/03/30 02:14:45;;;;;;;5.37;3.70;;;7.70;99.90;;;;;;4996128;28;20654;-80
2021/03/30 02:17:31;;;;;;;4.07;3.20;;;7.40;99.90;;;;;;4988263;28;20221;-80
2021/03/30 02:20:10;;;;;;;4.97;3.43;;;7.40;99.90;;;;;;4996718;28;20187;-80
2021/03/30 02:22:54;;;;;;;3.93;3.40;;;7.50;99.90;;;;;;4996164;28;20267;-80
2021/03/30 02:25:21;;;;;;;4.83;3.40;;;7.50;99.90;;;;;;4998565;28;20189;-80
2021/03/30 02:27:50;;;;;;;5.27;3.30;;;7.40;99.90;;;;;;4998361;28;20209;-80
2021/03/30 02:30:18;;;;;;;4.27;3.13;;;7.50;99.90;;;;;;4997185;28;20202;-80
2021/03/30 02:32:47;;;;;;;4.23;3.10;;;7.50;99.90;;;;;;4998189;28;20202;-80
2021/03/30 02:35:14;;;;;;;3.90;3.50;;;7.50;99.90;;;;;;4998403;28;20186;-80
2021/03/30 02:37:42;;;;;;;3.73;3.40;;;7.40;99.90;;;;;;4997971;28;20225;-81
2021/03/30 02:40:11;;;;;;;4.93;3.17;;;7.30;99.90;;;;;;4996806;28;20657;-81
2021/03/30 02:42:39;;;;;;;3.47;3.17;;;7.20;99.90;;;;;;4996908;28;20178;-81
2021/03/30 02:45:06;;;;;;;3.37;3.07;;;7.20;99.90;;;;;;4998687;28;20658;-80
2021/03/30 02:47:33;;;;;;;5.80;3.37;;;7.20;99.90;;;;;;4998633;28;20270;-81
2021/03/30 02:50:01;;;;;;;3.83;3.23;;;7.20;99.90;;;;;;4997147;28;20190;-81
2021/03/30 02:52:28;;;;;;;5.10;4.00;;;7.20;99.90;;;;;;4999212;28;20254;-80
2021/03/30 02:54:55;;;;;;;4.73;3.77;;;7.20;99.90;;;;;;4998325;28;20207;-81
2021/03/30 02:57:23;;;;;;;4.03;3.37;;;7.20;99.90;;;;;;4998567;28;20207;-80
2021/03/30 02:59:49;;;;;;;5.87;3.60;;;7.20;99.90;;;;;;4997977;28;20191;-81
2021/03/30 03:02:15;;;;;;;4.87;3.50;;;7.20;99.90;;;;;;4997137;28;20262;-80
2021/03/30 03:04:45;;;;;;;4.13;3.37;;;7.30;99.90;;;;;;4998105;28;20180;-80
2021/03/30 03:07:12;;;;;;;5.03;3.70;;;7.20;99.90;;;;;;4998387;28;20204;-80
2021/03/30 03:09:38;;;;;;;7.23;3.70;;;7.20;99.90;;;;;;4998095;28;20185;-81
2021/03/30 03:12:06;;;;;;;5.67;3.23;;;7.30;99.90;;;;;;4998212;28;20234;-81
2021/03/30 03:14:34;;;;;;;4.60;3.80;;;7.30;99.90;;;;;;4997653;28;20556;-80
2021/03/30 03:17:00;;;;;;;5.20;3.80;;;7.40;99.90;;;;;;4997550;28;20204;-80
2021/03/30 03:19:27;;;;;;;4.73;3.30;;;7.30;99.90;;;;;;4997670;28;20215;-81
2021/03/30 03:21:54;;;;;;;5.13;3.27;;;7.30;99.90;;;;;;4996862;28;20199;-80
2021/03/30 03:24:20;;;;;;;4.10;3.60;;;7.30;99.90;;;;;;4996552;28;20184;-80
2021/03/30 03:26:47;;;;;;;4.20;3.80;;;7.30;99.90;;;;;;4998121;28;20243;-81
2021/03/30 03:29:15;;;;;;;4.70;3.73;;;7.30;99.90;;;;;;4997181;28;20234;-80
2021/03/30 03:31:42;;;;;;;7.63;3.87;;;7.00;99.90;;;;;;4997542;28;20242;-81
2021/03/30 03:34:08;;;;;;;5.40;4.30;;;7.10;99.90;;;;;;4997635;28;20188;-80
2021/03/30 03:36:39;;;;;;;6.60;4.30;;;7.10;99.90;;;;;;4996153;28;20214;-80
2021/03/30 03:39:07;;;;;;;4.60;3.90;;;7.10;99.90;;;;;;4997888;28;20371;-81
2021/03/30 03:41:33;;;;;;;5.10;4.00;;;7.00;99.90;;;;;;4995894;28;20227;-80
2021/03/30 03:43:59;;;;;;;4.50;3.73;;;7.00;99.90;;;;;;4996067;28;20180;-80
2021/03/30 03:46:25;;;;;;;4.17;3.60;;;7.00;99.90;;;;;;4997498;28;20251;-81
2021/03/30 03:48:51;;;;;;;6.03;4.57;;;6.90;99.90;;;;;;4997269;28;20212;-81
2021/03/30 03:51:18;;;;;;;7.43;3.60;;;6.60;99.90;;;;;;4995846;28;20656;-81
2021/03/30 03:53:45;;;;;;;3.80;3.40;;;6.50;99.90;;;;;;4995953;28;20187;-81
2021/03/30 03:56:15;;;;;;;5.97;3.77;;;6.50;99.90;;;;;;4995112;28;20702;-80
2021/03/30 03:58:50;;;;;;;4.27;3.73;;;6.40;99.90;;;;;;4997891;28;20291;-81
2021/03/30 04:01:22;;;;;;;5.20;3.77;;;6.30;99.90;;;;;;4993055;28;20213;-80
2021/03/30 04:03:52;;;;;;;11.20;4.00;;;6.20;99.90;;;;;;4988524;28;20238;-80
2021/03/30 04:06:21;;;;;;;6.20;4.07;;;6.10;99.90;;;;;;4996380;28;20179;-81
2021/03/30 04:08:55;;;;;;;5.20;4.10;;;6.10;99.90;;;;;;4993611;28;20184;-80
2021/03/30 04:11:22;;;;;;;4.87;3.77;;;5.90;99.90;;;;;;4994323;28;20191;-80
2021/03/30 04:13:50;;;;;;;4.33;3.37;;;6.00;99.90;;;;;;4995327;28;20183;-80
2021/03/30 04:16:17;;;;;;;4.57;3.40;;;5.90;99.90;;;;;;4995173;28;20188;-80
2021/03/30 04:18:44;;;;;;;7.27;3.53;;;6.00;99.90;;;;;;4996426;28;20696;-80
2021/03/30 04:21:19;;;;;;;7.13;3.50;;;6.00;99.90;;;;;;4994918;28;20720;-80
2021/03/30 04:23:46;;;;;;;4.77;3.70;;;5.80;99.90;;;;;;4981956;28;20183;-80
2021/03/30 04:26:12;;;;;;;9.00;4.00;;;5.80;99.90;;;;;;4985708;28;20669;-79
2021/03/30 04:28:38;;;;;;;7.27;4.03;;;5.80;99.90;;;;;;4995740;28;20209;-81
2021/03/30 04:31:05;;;;;;;5.53;3.90;;;5.90;99.90;;;;;;4997177;28;20184;-80
2021/03/30 04:33:31;;;;;;;5.47;3.67;;;5.70;99.90;;;;;;4995927;28;20180;-81
2021/03/30 04:35:57;;;;;;;8.50;3.87;;;5.70;99.90;;;;;;4997059;28;20270;-80
2021/03/30 04:38:23;;;;;;;6.03;3.70;;;5.60;99.90;;;;;;4996676;28;20265;-80
2021/03/30 04:40:53;;;;;;;5.03;4.03;;;5.70;99.90;;;;;;4996808;28;20645;-80
2021/03/30 04:43:23;;;;;;;7.07;3.60;;;5.60;99.90;;;;;;4994899;28;20183;-80
2021/03/30 04:45:49;;;;;;;11.77;4.27;;;5.60;99.90;;;;;;4996749;28;20626;-79
2021/03/30 04:48:14;;;;;;;6.70;3.70;;;5.50;99.90;;;;;;4995926;28;20229;-80
2021/03/30 04:50:42;;;;;;;8.30;3.43;;;5.60;99.90;;;;;;4995858;28;20210;-80
2021/03/30 04:53:08;;;;;;;5.10;3.33;;;5.60;99.90;;;;;;4994577;28;20571;-80
2021/03/30 04:55:34;;;;;;;5.70;3.63;;;5.50;99.90;;;;;;4973370;28;20189;-80
2021/03/30 04:58:00;;;;;;;9.37;3.70;;;5.50;99.90;;;;;;4982263;28;20245;-80
2021/03/30 05:00:26;;;;;;;4.47;3.40;;;5.50;99.90;;;;;;4996513;28;20183;-80
2021/03/30 05:02:52;;;;;;;6.23;3.67;;;5.60;99.90;;;;;;4996858;28;20183;-79
2021/03/30 05:05:18;;;;;;;5.80;3.90;;;5.60;99.90;;;;;;4996946;28;20175;-81
2021/03/30 05:07:44;;;;;;;6.80;4.00;;;5.50;99.90;;;;;;4997852;28;20221;-79
2021/03/30 05:10:11;;;;;;;6.40;3.93;;;5.50;99.90;;;;;;5001648;28;20184;-80
2021/03/30 05:12:36;;;;;;;4.97;4.17;;;5.50;99.90;;;;;;4999402;28;20213;-80
2021/03/30 05:15:03;;;;;;;4.50;4.10;;;5.50;99.90;;;;;;4998453;28;20180;-82
2021/03/30 05:17:29;;;;;;;4.70;3.63;;;5.50;99.90;;;;;;5000156;28;20209;-80
2021/03/30 05:19:54;;;;;;;5.37;3.70;;;5.40;99.90;;;;;;4998835;28;20328;-80
2021/03/30 05:22:20;;;;;;;4.50;3.87;;;5.50;99.90;;;;;;4999049;28;20186;-80
2021/03/30 05:24:45;;;;;;;4.30;3.70;;;5.40;99.90;;;;;;4998986;28;20184;-79
2021/03/30 05:27:12;;;;;;;4.63;3.53;;;5.40;99.90;;;;;;5000747;28;20207;-79
2021/03/30 05:29:43;;;;;;;9.73;3.70;;;5.50;99.90;;;;;;5001317;28;20638;-80
2021/03/30 05:32:12;;;;;;;8.03;4.20;;;5.50;99.90;;;;;;4999779;28;20663;-73
2021/03/30 05:34:38;;;;;;;8.73;4.23;;;5.50;99.90;;;;;;5002922;28;20183;-77
2021/03/30 05:37:05;;;;;;;7.20;4.20;;;5.50;99.90;;;;;;4994332;28;20575;-77
2021/03/30 05:39:47;;;;;;;9.60;4.00;;;5.50;99.90;;;;;;4995910;28;20207;-76
2021/03/30 05:42:37;;;;;;;;;;;;;;;;;;;;;
2021/03/30 05:45:04;;;;;;;6.87;4.20;;;5.50;99.90;;;;;;4996515;28;20179;-76
2021/03/30 05:47:30;;;;;;;10.70;4.53;;;5.50;99.90;;;;;;4995172;28;20287;-77
2021/03/30 05:49:56;;;;;;;8.63;3.77;;;5.50;99.90;;;;;;4979169;28;20283;-76
2021/03/30 05:52:43;;;;;;;7.53;4.30;;;6.00;99.90;;;;;;4996302;28;20551;-77
2021/03/30 05:55:18;;;;;;;7.63;4.47;;;5.60;99.90;;;;;;4996381;28;20199;-76
2021/03/30 05:58:00;;;;;;;8.57;4.23;;;5.60;99.90;;;;;;4995033;28;20217;-76
2021/03/30 06:00:42;;;;;;;7.80;4.13;;;5.70;99.90;;;;;;4996382;28;20604;-76
2021/03/30 06:03:14;;;;;;;6.17;3.97;;;5.70;99.90;;;;;;4996194;28;20171;-77
2021/03/30 06:05:41;;;;;;;5.83;3.67;;;5.80;99.90;;;;;;4996410;28;20191;-77
2021/03/30 06:08:07;;;;;;;7.33;3.70;;;5.80;99.90;;;;;;4996059;28;20211;-78
2021/03/30 06:10:35;;;;;;;4.13;3.73;;;5.90;99.90;;;;;;4994469;28;20182;-77
2021/03/30 06:13:05;;;;;;;4.60;4.20;;;5.90;99.90;;;;;;4994961;28;20566;-77
2021/03/30 06:15:35;;;;;;;9.53;5.30;;;6.00;99.90;;;;;;4995910;28;20183;-77
2021/03/30 06:18:17;;;;;;;5.23;4.33;;;6.10;99.90;;;;;;4996105;28;20283;-77
2021/03/30 06:20:42;;;;;;;4.20;3.80;;;6.20;99.90;;;;;;4995639;28;20171;-77
2021/03/30 06:23:08;;;;;;;4.27;3.87;;;6.30;99.90;;;;;;4994646;28;20670;-77
2021/03/30 06:25:37;;;;;;;5.93;4.30;;;6.20;99.90;;;;;;4995750;28;20259;-77
2021/03/30 06:28:15;;;;;;;7.13;4.60;;;6.30;99.90;;;;;;4995964;28;20223;-77
2021/03/30 06:31:02;;;;;;;5.77;4.77;;;6.40;99.90;;;;;;4995863;28;20259;-77
2021/03/30 06:33:33;;;;;;;7.57;4.57;;;6.40;99.90;;;;;;4995539;28;20192;-77
2021/03/30 06:36:12;;;;;;;5.27;4.77;;;6.40;99.90;;;;;;4995990;28;20179;-77
2021/03/30 06:38:54;;;;;;;7.93;5.00;;;6.30;99.90;;;;;;5026715;22;20227;-75
2021/03/30 06:41:46;;;;;;;7.93;4.90;;;6.40;99.90;;;;;;5032648;28;20190;-74
2021/03/30 06:44:29;;;;;;;10.53;4.63;;;6.40;99.90;;;;;;5034789;28;20170;-75
2021/03/30 06:47:01;;;;;;;8.03;5.03;;;6.50;99.90;;;;;;5024406;28;20201;-74
2021/03/30 06:49:29;;;;;;;5.47;4.87;;;6.80;99.90;;;;;;5034866;28;20233;-74
2021/03/30 06:51:56;;;;;;;7.30;4.37;;;7.00;99.90;;;;;;5035634;28;20174;-74
2021/03/30 06:54:23;;;;;;;5.70;4.33;;;7.20;99.90;;;;;;5031062;28;20526;-73
2021/03/30 06:56:51;;;;;;;4.33;3.93;;;7.30;99.90;;;;;;5028733;28;20179;-73
2021/03/30 06:59:17;;;;;;;4.93;3.70;;;7.40;99.90;;;;;;5020528;28;20214;-74
2021/03/30 07:01:47;;;;;;;5.27;3.80;;;7.50;99.90;;;;;;5033342;28;20640;-74
2021/03/30 07:04:13;;;;;;;9.10;4.30;;;7.50;99.90;;;;;;5034300;28;20633;-73
2021/03/30 07:06:40;;;;;;;5.83;4.50;;;7.60;99.90;;;;;;5034942;28;20182;-72
2021/03/30 07:09:10;;;;;;;5.80;4.00;;;7.60;99.90;;;;;;5034143;28;20217;-73
2021/03/30 07:11:39;;;;;;;8.00;3.93;;;7.70;99.90;;;;;;5034860;28;20266;-73
2021/03/30 07:14:05;;;;;;;6.57;4.17;;;7.90;99.90;;;;;;5034167;28;20202;-73
2021/03/30 07:16:45;;;;;;;9.43;4.43;;;8.00;99.90;;;;;;5034113;28;20231;-73
2021/03/30 07:19:12;;;;;;;6.67;4.70;;;8.10;99.90;;;;;;5031408;28;20210;-73
2021/03/30 07:21:56;;;;;;;8.10;4.80;;;8.30;99.90;;;;;;5034117;28;20186;-74
2021/03/30 07:24:25;;;;;;;6.20;4.80;;;8.40;99.90;;;;;;5034105;28;20172;-75
2021/03/30 07:27:00;;;;;;;10.90;5.97;;;8.40;99.90;;;;;;5033921;28;20207;-74
2021/03/30 07:29:30;;;;;;;9.33;6.20;;;8.50;99.90;;;;;;5034182;28;20298;-75
2021/03/30 07:32:07;;;;;;;16.10;6.83;;;8.60;99.90;;;;;;5033251;28;20175;-74
2021/03/30 07:34:47;;;;;;;23.17;11.47;;;8.70;99.90;;;;;;5030189;28;20180;-76
2021/03/30 07:37:18;;;;;;;35.37;13.67;;;8.80;99.90;;;;;;5034009;28;20185;-74
2021/03/30 07:39:49;;;;;;;37.30;14.37;;;8.90;99.90;;;;;;5033564;28;20216;-72
2021/03/30 07:42:15;;;;;;;20.23;11.50;;;9.10;99.90;;;;;;5033722;28;20669;-75
2021/03/30 07:44:45;;;;;;;28.60;12.70;;;9.20;99.90;;;;;;5032295;28;20659;-74
2021/03/30 07:47:12;;;;;;;25.07;13.70;;;9.30;99.90;;;;;;5033917;28;20585;-73
2021/03/30 07:49:45;;;;;;;20.43;12.00;;;9.30;99.90;;;;;;5033631;28;20605;-75
2021/03/30 07:52:23;;;;;;;25.17;13.73;;;9.30;99.90;;;;;;5033557;28;20589;-74
2021/03/30 07:55:22;;;;;;;23.43;12.63;;;9.30;99.90;;;;;;5033583;28;20174;-76
2021/03/30 07:58:10;;;;;;;24.50;13.67;;;9.40;99.90;;;;;;4996927;28;20233;-75
2021/03/30 08:00:38;;;;;;;30.17;16.80;;;9.50;99.90;;;;;;5032730;28;20169;-74
2021/03/30 08:03:23;;;;;;;25.77;14.57;;;9.50;99.90;;;;;;5033802;28;20537;-76
2021/03/30 08:06:24;;;;;;;21.13;12.07;;;9.60;99.90;;;;;;5023699;28;20173;-76
2021/03/30 08:08:52;;;;;;;19.30;10.17;;;9.70;99.90;;;;;;5032245;28;20742;-75
2021/03/30 08:11:46;;;;;;;23.10;9.87;;;9.70;99.90;;;;;;5033307;28;20313;-73
2021/03/30 08:14:38;;;;;;;13.53;9.17;;;9.80;99.90;;;;;;5031850;28;20560;-75
2021/03/30 08:17:13;;;;;;;15.33;8.33;;;9.90;99.90;;;;;;5033381;28;20651;-74
2021/03/30 08:19:58;;;;;;;13.33;8.80;;;10.00;99.90;;;;;;5033087;28;20200;-73
2021/03/30 08:22:26;;;;;;;14.23;8.37;;;10.20;99.90;;;;;;5033111;28;20245;-77
2021/03/30 08:24:54;;;;;;;15.50;9.50;;;10.20;99.90;;;;;;5033119;28;20227;-74
2021/03/30 08:27:35;;;;;;;13.57;9.17;;;10.30;99.90;;;;;;5033052;28;20200;-74
2021/03/30 08:30:15;;;;;;;15.13;8.13;;;10.50;99.90;;;;;;5033219;28;20587;-73
2021/03/30 08:32:47;;;;;;;18.43;9.60;;;10.60;99.90;;;;;;5032916;28;20174;-75
2021/03/30 08:35:29;;;;;;;19.63;9.40;;;10.90;99.90;;;;;;5033324;28;20257;-75
2021/03/30 08:37:55;;;;;;;17.03;8.77;;;11.00;99.90;;;;;;5032680;28;20213;-74
2021/03/30 08:40:36;;;;;;;18.60;8.60;;;11.20;99.90;;;;;;5033214;28;20170;-74
2021/03/30 08:43:15;;;;;;;16.10;8.97;;;11.40;99.90;;;;;;5035709;28;20174;-74
2021/03/30 08:46:11;;;;;;;10.37;7.13;;;11.40;99.90;;;;;;5036892;28;20228;-75
2021/03/30 08:48:49;;;;;;;10.43;6.90;;;11.50;99.90;;;;;;5036821;28;20627;-75
2021/03/30 08:51:17;;;;;;;12.20;5.50;;;11.60;99.90;;;;;;5032911;28;20182;-74
2021/03/30 08:53:44;;;;;;;9.30;4.97;;;11.70;99.90;;;;;;5035490;28;20174;-73
2021/03/30 08:56:12;;;;;;;10.03;5.33;;;11.70;99.90;;;;;;5035579;28;20182;-74
2021/03/30 08:58:58;;;;;;;13.83;5.77;;;11.80;99.90;;;;;;5037065;28;20252;-75
2021/03/30 09:01:25;;;;;;;9.83;5.33;;;12.00;99.90;;;;;;5037147;28;20190;-75
2021/03/30 09:03:54;;;;;;;11.80;5.93;;;11.90;99.90;;;;;;5036611;28;20177;-74
2021/03/30 09:06:40;;;;;;;14.30;5.60;;;12.20;99.90;;;;;;5036640;28;20233;-74
2021/03/30 09:09:33;;;;;;;8.97;5.50;;;12.30;99.90;;;;;;5036619;28;20194;-74
2021/03/30 09:11:58;;;;;;;9.77;4.93;;;12.30;99.90;;;;;;5036518;28;20175;-75
2021/03/30 09:14:24;;;;;;;7.17;4.90;;;12.50;99.90;;;;;;5036410;28;20197;-74
2021/03/30 09:16:51;;;;;;;9.70;5.80;;;12.70;99.90;;;;;;5036461;28;20194;-74
2021/03/30 09:19:38;;;;;;;14.23;5.40;;;12.80;99.90;;;;;;5036143;28;20668;-74
2021/03/30 09:22:21;;;;;;;7.97;4.93;;;12.70;99.90;;;;;;5035135;28;20607;-75
2021/03/30 09:24:54;;;;;;;9.83;4.73;;;12.90;99.90;;;;;;5036521;28;20166;-74
2021/03/30 09:27:28;;;;;;;9.63;4.80;;;12.90;99.90;;;;;;5036273;28;20266;-74
2021/03/30 09:30:22;;;;;;;9.00;4.73;;;13.00;99.90;;;;;;5036094;28;20174;-76
2021/03/30 09:32:50;;;;;;;7.63;4.50;;;13.20;99.90;;;;;;5036081;28;20166;-75
2021/03/30 09:35:19;;;;;;;8.20;4.63;;;13.30;99.90;;;;;;5034740;28;20190;-75
2021/03/30 09:38:04;;;;;;;7.53;4.87;;;13.30;99.90;;;;;;5035923;28;20647;-74
2021/03/30 09:40:48;;;;;;;9.37;4.70;;;13.30;99.90;;;;;;5036255;28;20182;-76
2021/03/30 09:43:18;;;;;;;5.33;4.57;;;13.50;99.90;;;;;;5036642;28;20186;-74
2021/03/30 09:45:45;;;;;;;12.63;5.13;;;13.60;99.90;;;;;;5037365;28;20183;-74
2021/03/30 09:48:13;;;;;;;10.23;4.27;;;13.70;99.90;;;;;;5038195;28;20273;-75
2021/03/30 09:50:47;;;;;;;15.13;4.60;;;13.90;99.90;;;;;;5035861;28;20579;-75
2021/03/30 09:53:13;;;;;;;6.90;4.53;;;14.00;99.90;;;;;;5035208;28;20182;-75
2021/03/30 09:55:45;;;;;;;6.20;3.73;;;14.00;99.90;;;;;;5035291;28;20186;-76
2021/03/30 09:58:13;;;;;;;10.27;5.00;;;13.90;99.90;;;;;;5035786;28;20233;-73
2021/03/30 10:00:45;;;;;;;8.13;5.07;;;14.10;99.90;;;;;;5034307;28;20228;-74
2021/03/30 10:03:13;;;;;;;6.63;4.53;;;14.20;99.90;;;;;;5035966;28;20187;-75
2021/03/30 10:05:42;;;;;;;7.67;4.80;;;14.20;99.90;;;;;;5035373;28;20182;-75
2021/03/30 10:08:22;;;;;;;6.10;4.23;;;14.50;99.90;;;;;;5035459;28;20575;-74
2021/03/30 10:10:53;;;;;;;7.60;4.17;;;14.60;99.90;;;;;;5033563;28;20710;-75
2021/03/30 10:13:36;;;;;;;8.43;4.87;;;14.60;99.90;;;;;;5027524;28;20193;-76
2021/03/30 10:16:03;;;;;;;10.37;4.33;;;14.80;99.90;;;;;;5035530;28;20236;-74
2021/03/30 10:18:29;;;;;;;8.00;4.50;;;14.90;99.90;;;;;;5035152;28;20576;-75
2021/03/30 10:21:06;;;;;;;8.33;4.10;;;14.80;99.90;;;;;;5035279;28;20560;-75
2021/03/30 10:23:34;;;;;;;7.93;4.30;;;14.90;99.90;;;;;;5035372;28;20179;-75
2021/03/30 10:26:11;;;;;;;8.60;4.27;;;15.00;99.90;;;;;;5035081;28;20193;-76
2021/03/30 10:28:36;;;;;;;7.37;3.90;;;15.30;99.90;;;;;;5035152;28;20197;-74
2021/03/30 10:31:05;;;;;;;9.67;3.97;;;15.50;99.90;;;;;;5035267;28;20672;-75
2021/03/30 10:33:39;;;;;;;9.30;4.97;;;15.70;99.90;;;;;;5035001;28;20267;-75
2021/03/30 10:36:10;;;;;;;6.90;4.40;;;15.90;99.90;;;;;;5034995;28;20182;-73
2021/03/30 10:38:37;;;;;;;5.73;4.03;;;16.10;99.90;;;;;;5034932;28;20301;-75
2021/03/30 10:41:11;;;;;;;4.97;4.37;;;16.10;99.90;;;;;;5034844;28;20199;-74
2021/03/30 10:43:38;;;;;;;5.07;3.50;;;16.20;99.70;;;;;;5035375;28;20181;-73
2021/03/30 10:46:21;;;;;;;10.83;3.40;;;16.40;99.50;;;;;;5036207;28;20699;-74
2021/03/30 10:49:06;;;;;;;5.20;3.40;;;16.60;99.90;;;;;;5037351;28;20202;-75
2021/03/30 10:51:34;;;;;;;5.47;3.30;;;16.80;99.20;;;;;;5035840;28;20190;-74
2021/03/30 10:54:02;;;;;;;7.23;3.30;;;17.10;99.30;;;;;;5033831;28;20225;-74
2021/03/30 10:56:29;;;;;;;5.37;3.10;;;17.20;98.40;;;;;;5035095;28;20183;-72
2021/03/30 10:58:54;;;;;;;3.07;2.80;;;17.20;97.70;;;;;;5033085;28;20692;-73
2021/03/30 11:01:21;;;;;;;6.47;3.10;;;17.40;98.30;;;;;;5032126;28;20186;-74
2021/03/30 11:03:46;;;;;;;6.00;2.90;;;17.60;96.20;;;;;;5029959;28;20185;-72
2021/03/30 11:06:12;;;;;;;5.43;3.33;;;17.60;97.00;;;;;;5032418;28;20182;-71
2021/03/30 11:08:37;;;;;;;4.83;3.57;;;17.70;95.60;;;;;;5033003;28;20691;-74
2021/03/30 11:11:03;;;;;;;6.67;3.77;;;17.70;95.50;;;;;;5029694;28;20197;-71
2021/03/30 11:13:29;;;;;;;5.73;3.23;;;17.70;95.90;;;;;;5034323;28;20264;-71
2021/03/30 11:15:55;;;;;;;4.47;3.00;;;17.80;95.70;;;;;;5031996;28;20644;-73
2021/03/30 11:18:21;;;;;;;6.40;3.30;;;18.10;96.90;;;;;;5032788;28;20260;-76
2021/03/30 11:20:47;;;;;;;4.37;3.20;;;18.20;94.60;;;;;;5033649;28;20175;-73
2021/03/30 11:23:12;;;;;;;5.83;2.90;;;18.20;95.00;;;;;;5032376;28;20224;-74
2021/03/30 11:25:39;;;;;;;4.40;2.57;;;18.30;96.00;;;;;;5034384;28;20652;-74
2021/03/30 11:28:09;;;;;;;5.00;3.10;;;18.60;96.30;;;;;;5033122;28;20218;-73
2021/03/30 11:30:43;;;;;;;4.50;2.70;;;18.70;95.20;;;;;;5034092;28;20174;-75
2021/03/30 11:33:22;;;;;;;5.17;3.37;;;18.70;93.60;;;;;;5033984;28;20178;-73
2021/03/30 11:35:52;;;;;;;6.00;3.10;;;18.80;94.70;;;;;;5033000;28;20182;-73
2021/03/30 11:38:18;;;;;;;8.00;3.23;;;18.80;94.20;;;;;;5032719;28;20268;-72
2021/03/30 11:40:44;;;;;;;5.13;3.27;;;18.80;94.20;;;;;;5033724;28;20178;-72
2021/03/30 11:43:11;;;;;;;5.27;2.90;;;19.10;95.00;;;;;;5034027;28;20186;-72
2021/03/30 11:45:37;;;;;;;6.67;2.90;;;19.40;95.30;;;;;;5033824;28;20208;-74
2021/03/30 11:48:04;;;;;;;4.53;2.77;;;19.60;92.90;;;;;;5033722;28;20206;-74
2021/03/30 11:50:30;;;;;;;6.83;3.23;;;19.60;94.20;;;;;;5033574;28;20178;-73
2021/03/30 11:52:57;;;;;;;6.27;2.77;;;19.90;93.70;;;;;;5033963;28;20232;-74
2021/03/30 11:55:23;;;;;;;3.17;2.40;;;20.00;91.90;;;;;;5033501;28;20315;-72
2021/03/30 11:57:50;;;;;;;5.33;2.90;;;20.00;94.10;;;;;;5033701;28;20225;-71
2021/03/30 12:00:16;;;;;;;4.50;2.90;;;20.30;93.10;;;;;;5033509;28;20175;-75
2021/03/30 12:02:44;;;;;;;5.93;2.43;;;20.50;92.90;;;;;;5033422;28;20162;-74
2021/03/30 12:05:10;;;;;;;4.07;2.30;;;20.40;91.00;;;;;;5033543;28;20170;-76
2021/03/30 12:07:36;;;;;;;4.03;2.07;;;20.40;91.20;;;;;;5030195;28;20178;-73
2021/03/30 12:10:04;;;;;;;5.90;2.17;;;20.40;89.00;;;;;;5033584;28;20257;-71
2021/03/30 12:12:30;;;;;;;5.10;2.17;;;20.20;87.30;;;;;;5033196;28;20257;-74
2021/03/30 12:14:56;;;;;;;5.17;2.20;;;20.20;86.50;;;;;;5033391;28;20201;-74
2021/03/30 12:17:22;;;;;;;4.13;2.00;;;20.10;84.90;;;;;;5032244;28;20637;-71
2021/03/30 12:19:47;;;;;;;2.03;1.83;;;20.20;83.80;;;;;;5032250;28;20166;-73
2021/03/30 12:22:13;;;;;;;5.83;2.47;;;20.20;90.40;;;;;;5032188;28;20178;-73
2021/03/30 12:24:38;;;;;;;4.73;2.47;;;20.30;88.40;;;;;;5033199;28;20179;-74
2021/03/30 12:27:11;;;;;;;4.27;2.00;;;20.50;89.30;;;;;;5031892;28;20174;-74
2021/03/30 12:29:40;;;;;;;3.30;2.03;;;20.70;85.60;;;;;;5032807;28;20193;-73
2021/03/30 12:32:10;;;;;;;3.13;2.27;;;20.70;83.40;;;;;;5033118;28;20649;-76
2021/03/30 12:34:36;;;;;;;7.83;2.80;;;20.60;85.70;;;;;;5032960;28;20293;-74
2021/03/30 12:37:02;;;;;;;7.83;2.87;;;20.70;90.70;;;;;;5031775;28;20277;-75
2021/03/30 12:41:57;;;;;;;4.13;2.47;;;21.10;89.10;;;;;;5052899;22;20699;-76
2021/03/30 12:44:25;;;;;;;4.57;2.07;;;21.30;90.00;;;;;;5033071;28;20178;-76
2021/03/30 12:46:51;;;;;;;9.33;3.10;;;21.50;83.50;;;;;;5032893;28;20178;-75
2021/03/30 12:49:17;;;;;;;2.77;1.80;;;21.40;84.30;;;;;;5032902;28;20186;-75
2021/03/30 12:51:43;;;;;;;6.50;2.33;;;21.40;83.60;;;;;;5029710;28;20198;-76
2021/03/30 12:54:09;;;;;;;4.20;2.13;;;21.30;84.10;;;;;;5032718;28;20182;-75
2021/03/30 12:56:35;;;;;;;2.57;2.10;;;21.20;87.00;;;;;;5032701;28;20189;-74
2021/03/30 12:59:00;;;;;;;5.67;2.17;;;21.40;84.00;;;;;;5022652;28;20740;-75
2021/03/30 13:01:26;;;;;;;5.93;2.13;;;21.40;85.60;;;;;;5030929;28;20567;-75
2021/03/30 13:03:52;;;;;;;2.37;1.60;;;21.50;84.10;;;;;;5033102;28;20225;-75
2021/03/30 13:06:18;;;;;;;8.57;2.70;;;21.50;84.50;;;;;;5032688;28;20640;-76
2021/03/30 13:08:43;;;;;;;6.43;2.20;;;21.50;86.00;;;;;;5031409;28;20200;-75
2021/03/30 13:11:09;;;;;;;3.53;1.90;;;21.60;88.10;;;;;;5031738;28;20202;-76
2021/03/30 13:13:35;;;;;;;2.13;1.73;;;21.70;84.20;;;;;;5032317;28;20546;-76
2021/03/30 13:16:01;;;;;;;4.10;1.80;;;21.70;84.50;;;;;;5016880;28;20190;-75